sensor_id;sensor_type;location;lat;lon;timestamp;P1;durP1;ratioP1;P2;durP2;ratioP2
64799;SDS011;51233;51.982;4.594;2023-05-07T00:01:55;11.90;;;10.70;;
64799;SDS011;51233;51.982;4.594;2023-05-07T00:04:55;13.60;;;10.83;;
64799;SDS011;51233;51.982;4.594;2023-05-07T00:07:56;13.17;;;10.80;;
64799;SDS011;51233;51.982;4.594;2023-05-07T00:10:59;10.73;;;9.73;;
64799;SDS011;51233;51.982;4.594;2023-05-07T00:13:59;12.45;;;10.45;;
64799;SDS011;51233;51.982;4.594;2023-05-07T00:16:59;11.43;;;10.17;;
64799;SDS011;51233;51.982;4.594;2023-05-07T00:19:59;14.43;;;9.55;;
64799;SDS011;51233;51.982;4.594;2023-05-07T00:23:00;9.68;;;8.77;;
64799;SDS011;51233;51.982;4.594;2023-05-07T00:26:00;12.33;;;10.17;;
64799;SDS011;51233;51.982;4.594;2023-05-07T00:29:00;10.02;;;8.95;;
64799;SDS011;51233;51.982;4.594;2023-05-07T00:32:00;11.68;;;10.45;;
64799;SDS011;51233;51.982;4.594;2023-05-07T00:35:00;10.15;;;9.18;;
64799;SDS011;51233;51.982;4.594;2023-05-07T00:38:00;11.82;;;10.20;;
64799;SDS011;51233;51.982;4.594;2023-05-07T00:41:01;12.30;;;10.23;;
64799;SDS011;51233;51.982;4.594;2023-05-07T00:44:02;10.15;;;9.10;;
64799;SDS011;51233;51.982;4.594;2023-05-07T00:47:03;10.80;;;9.70;;
64799;SDS011;51233;51.982;4.594;2023-05-07T00:50:06;11.20;;;9.40;;
64799;SDS011;51233;51.982;4.594;2023-05-07T00:53:25;10.75;;;9.68;;
64799;SDS011;51233;51.982;4.594;2023-05-07T00:56:26;11.53;;;10.40;;
64799;SDS011;51233;51.982;4.594;2023-05-07T00:59:26;12.68;;;10.32;;
64799;SDS011;51233;51.982;4.594;2023-05-07T01:02:27;11.37;;;10.27;;
64799;SDS011;51233;51.982;4.594;2023-05-07T01:05:30;12.40;;;10.50;;
64799;SDS011;51233;51.982;4.594;2023-05-07T01:08:30;14.55;;;11.15;;
64799;SDS011;51233;51.982;4.594;2023-05-07T01:11:31;11.27;;;10.17;;
64799;SDS011;51233;51.982;4.594;2023-05-07T01:14:34;12.27;;;9.73;;
64799;SDS011;51233;51.982;4.594;2023-05-07T01:17:35;13.30;;;9.60;;
64799;SDS011;51233;51.982;4.594;2023-05-07T01:20:35;11.47;;;9.67;;
64799;SDS011;51233;51.982;4.594;2023-05-07T01:23:38;12.27;;;9.70;;
64799;SDS011;51233;51.982;4.594;2023-05-07T01:26:39;11.60;;;10.40;;
64799;SDS011;51233;51.982;4.594;2023-05-07T01:29:39;11.77;;;10.23;;
64799;SDS011;51233;51.982;4.594;2023-05-07T01:32:43;12.30;;;11.00;;
64799;SDS011;51233;51.982;4.594;2023-05-07T01:35:46;15.68;;;11.30;;
64799;SDS011;51233;51.982;4.594;2023-05-07T01:38:47;12.57;;;11.20;;
64799;SDS011;51233;51.982;4.594;2023-05-07T01:41:47;16.97;;;11.13;;
64799;SDS011;51233;51.982;4.594;2023-05-07T01:44:48;12.87;;;11.07;;
64799;SDS011;51233;51.982;4.594;2023-05-07T01:47:49;12.50;;;10.43;;
64799;SDS011;51233;51.982;4.594;2023-05-07T01:50:49;12.20;;;11.00;;
64799;SDS011;51233;51.982;4.594;2023-05-07T01:53:51;12.33;;;10.30;;
64799;SDS011;51233;51.982;4.594;2023-05-07T01:56:52;12.25;;;10.80;;
64799;SDS011;51233;51.982;4.594;2023-05-07T01:59:52;11.10;;;10.03;;
64799;SDS011;51233;51.982;4.594;2023-05-07T02:02:52;11.23;;;10.23;;
64799;SDS011;51233;51.982;4.594;2023-05-07T02:05:52;10.67;;;9.57;;
64799;SDS011;51233;51.982;4.594;2023-05-07T02:08:53;11.50;;;10.30;;
64799;SDS011;51233;51.982;4.594;2023-05-07T02:11:55;11.23;;;10.03;;
64799;SDS011;51233;51.982;4.594;2023-05-07T02:14:56;10.18;;;9.18;;
64799;SDS011;51233;51.982;4.594;2023-05-07T02:18:00;11.10;;;9.27;;
64799;SDS011;51233;51.982;4.594;2023-05-07T02:21:00;11.20;;;9.50;;
64799;SDS011;51233;51.982;4.594;2023-05-07T02:24:00;9.98;;;8.90;;
64799;SDS011;51233;51.982;4.594;2023-05-07T02:27:01;9.77;;;8.70;;
64799;SDS011;51233;51.982;4.594;2023-05-07T02:30:02;10.10;;;9.05;;
64799;SDS011;51233;51.982;4.594;2023-05-07T02:33:02;9.40;;;8.50;;
64799;SDS011;51233;51.982;4.594;2023-05-07T02:36:06;9.90;;;8.90;;
64799;SDS011;51233;51.982;4.594;2023-05-07T02:39:07;8.82;;;8.10;;
64799;SDS011;51233;51.982;4.594;2023-05-07T02:42:07;10.07;;;9.07;;
64799;SDS011;51233;51.982;4.594;2023-05-07T02:45:07;9.20;;;8.30;;
64799;SDS011;51233;51.982;4.594;2023-05-07T02:48:07;10.30;;;9.27;;
64799;SDS011;51233;51.982;4.594;2023-05-07T02:51:08;9.10;;;8.20;;
64799;SDS011;51233;51.982;4.594;2023-05-07T02:54:08;9.38;;;8.48;;
64799;SDS011;51233;51.982;4.594;2023-05-07T02:57:08;8.67;;;7.87;;
64799;SDS011;51233;51.982;4.594;2023-05-07T03:00:14;9.73;;;8.73;;
64799;SDS011;51233;51.982;4.594;2023-05-07T03:03:15;8.80;;;7.95;;
64799;SDS011;51233;51.982;4.594;2023-05-07T03:06:15;8.20;;;7.50;;
64799;SDS011;51233;51.982;4.594;2023-05-07T03:09:16;8.85;;;7.95;;
64799;SDS011;51233;51.982;4.594;2023-05-07T03:12:16;8.27;;;7.47;;
64799;SDS011;51233;51.982;4.594;2023-05-07T03:15:16;7.22;;;6.63;;
64799;SDS011;51233;51.982;4.594;2023-05-07T03:18:17;7.17;;;6.47;;
64799;SDS011;51233;51.982;4.594;2023-05-07T03:21:17;9.60;;;8.45;;
64799;SDS011;51233;51.982;4.594;2023-05-07T03:24:17;8.97;;;8.17;;
64799;SDS011;51233;51.982;4.594;2023-05-07T03:27:17;9.23;;;8.15;;
64799;SDS011;51233;51.982;4.594;2023-05-07T03:30:17;8.18;;;7.38;;
64799;SDS011;51233;51.982;4.594;2023-05-07T03:33:18;8.43;;;7.60;;
64799;SDS011;51233;51.982;4.594;2023-05-07T03:36:18;8.40;;;7.60;;
64799;SDS011;51233;51.982;4.594;2023-05-07T03:39:18;7.37;;;6.73;;
64799;SDS011;51233;51.982;4.594;2023-05-07T03:42:18;7.75;;;7.05;;
64799;SDS011;51233;51.982;4.594;2023-05-07T03:45:19;7.90;;;7.22;;
64799;SDS011;51233;51.982;4.594;2023-05-07T03:48:22;7.63;;;6.93;;
64799;SDS011;51233;51.982;4.594;2023-05-07T03:51:22;7.32;;;6.72;;
64799;SDS011;51233;51.982;4.594;2023-05-07T03:54:23;7.28;;;6.57;;
64799;SDS011;51233;51.982;4.594;2023-05-07T03:57:23;6.95;;;6.35;;
64799;SDS011;51233;51.982;4.594;2023-05-07T04:00:23;6.97;;;6.38;;
64799;SDS011;51233;51.982;4.594;2023-05-07T04:03:23;7.10;;;6.50;;
64799;SDS011;51233;51.982;4.594;2023-05-07T04:06:23;6.07;;;5.67;;
64799;SDS011;51233;51.982;4.594;2023-05-07T04:09:24;6.93;;;6.27;;
64799;SDS011;51233;51.982;4.594;2023-05-07T04:12:25;6.50;;;5.90;;
64799;SDS011;51233;51.982;4.594;2023-05-07T04:15:25;6.22;;;5.68;;
64799;SDS011;51233;51.982;4.594;2023-05-07T04:18:25;6.27;;;5.67;;
64799;SDS011;51233;51.982;4.594;2023-05-07T04:21:25;6.10;;;5.50;;
64799;SDS011;51233;51.982;4.594;2023-05-07T04:24:26;6.13;;;5.60;;
64799;SDS011;51233;51.982;4.594;2023-05-07T04:27:26;9.10;;;5.97;;
64799;SDS011;51233;51.982;4.594;2023-05-07T04:30:28;6.03;;;5.53;;
64799;SDS011;51233;51.982;4.594;2023-05-07T04:33:28;6.13;;;5.65;;
64799;SDS011;51233;51.982;4.594;2023-05-07T04:36:28;6.47;;;5.88;;
64799;SDS011;51233;51.982;4.594;2023-05-07T04:39:29;5.30;;;4.87;;
64799;SDS011;51233;51.982;4.594;2023-05-07T04:42:29;6.07;;;5.57;;
64799;SDS011;51233;51.982;4.594;2023-05-07T04:45:29;7.07;;;5.80;;
64799;SDS011;51233;51.982;4.594;2023-05-07T04:48:30;6.50;;;5.47;;
64799;SDS011;51233;51.982;4.594;2023-05-07T04:51:30;6.17;;;5.53;;
64799;SDS011;51233;51.982;4.594;2023-05-07T04:54:32;6.10;;;5.57;;
64799;SDS011;51233;51.982;4.594;2023-05-07T04:57:32;5.80;;;5.30;;
64799;SDS011;51233;51.982;4.594;2023-05-07T05:00:33;5.60;;;5.20;;
64799;SDS011;51233;51.982;4.594;2023-05-07T05:03:33;6.70;;;5.63;;
64799;SDS011;51233;51.982;4.594;2023-05-07T05:06:33;7.57;;;6.35;;
64799;SDS011;51233;51.982;4.594;2023-05-07T05:09:33;5.80;;;5.40;;
64799;SDS011;51233;51.982;4.594;2023-05-07T05:12:34;6.67;;;6.07;;
64799;SDS011;51233;51.982;4.594;2023-05-07T05:15:34;5.83;;;5.43;;
64799;SDS011;51233;51.982;4.594;2023-05-07T05:18:34;6.60;;;6.00;;
64799;SDS011;51233;51.982;4.594;2023-05-07T05:21:35;7.33;;;5.50;;
64799;SDS011;51233;51.982;4.594;2023-05-07T05:24:35;6.78;;;6.18;;
64799;SDS011;51233;51.982;4.594;2023-05-07T05:27:35;6.53;;;5.93;;
64799;SDS011;51233;51.982;4.594;2023-05-07T05:30:35;6.90;;;6.30;;
64799;SDS011;51233;51.982;4.594;2023-05-07T05:33:36;7.53;;;6.63;;
64799;SDS011;51233;51.982;4.594;2023-05-07T05:36:36;8.07;;;6.50;;
64799;SDS011;51233;51.982;4.594;2023-05-07T05:39:36;7.60;;;6.53;;
64799;SDS011;51233;51.982;4.594;2023-05-07T05:42:36;6.68;;;6.07;;
64799;SDS011;51233;51.982;4.594;2023-05-07T05:45:36;7.20;;;6.50;;
64799;SDS011;51233;51.982;4.594;2023-05-07T05:48:36;8.57;;;6.87;;
64799;SDS011;51233;51.982;4.594;2023-05-07T05:51:37;7.87;;;7.07;;
64799;SDS011;51233;51.982;4.594;2023-05-07T05:54:37;7.37;;;6.63;;
64799;SDS011;51233;51.982;4.594;2023-05-07T05:57:37;7.95;;;7.18;;
64799;SDS011;51233;51.982;4.594;2023-05-07T06:00:37;8.57;;;7.77;;
64799;SDS011;51233;51.982;4.594;2023-05-07T06:03:38;8.30;;;7.50;;
64799;SDS011;51233;51.982;4.594;2023-05-07T06:06:38;8.47;;;7.37;;
64799;SDS011;51233;51.982;4.594;2023-05-07T06:09:38;8.32;;;7.03;;
64799;SDS011;51233;51.982;4.594;2023-05-07T06:12:39;8.63;;;7.75;;
64799;SDS011;51233;51.982;4.594;2023-05-07T06:15:39;8.57;;;7.78;;
64799;SDS011;51233;51.982;4.594;2023-05-07T06:18:39;8.70;;;7.82;;
64799;SDS011;51233;51.982;4.594;2023-05-07T06:21:40;9.27;;;8.13;;
64799;SDS011;51233;51.982;4.594;2023-05-07T06:24:40;13.50;;;8.30;;
64799;SDS011;51233;51.982;4.594;2023-05-07T06:27:40;9.00;;;7.68;;
64799;SDS011;51233;51.982;4.594;2023-05-07T06:30:40;8.93;;;7.83;;
64799;SDS011;51233;51.982;4.594;2023-05-07T06:33:41;11.07;;;9.15;;
64799;SDS011;51233;51.982;4.594;2023-05-07T06:36:41;10.80;;;8.83;;
64799;SDS011;51233;51.982;4.594;2023-05-07T06:39:41;11.00;;;9.87;;
64799;SDS011;51233;51.982;4.594;2023-05-07T06:42:42;10.70;;;8.40;;
64799;SDS011;51233;51.982;4.594;2023-05-07T06:45:42;11.65;;;9.57;;
64799;SDS011;51233;51.982;4.594;2023-05-07T06:48:42;8.83;;;7.93;;
64799;SDS011;51233;51.982;4.594;2023-05-07T06:51:42;10.83;;;9.77;;
64799;SDS011;51233;51.982;4.594;2023-05-07T06:54:42;10.50;;;9.13;;
64799;SDS011;51233;51.982;4.594;2023-05-07T06:57:42;10.68;;;9.68;;
64799;SDS011;51233;51.982;4.594;2023-05-07T07:00:43;11.40;;;10.30;;
64799;SDS011;51233;51.982;4.594;2023-05-07T07:03:43;11.10;;;10.10;;
64799;SDS011;51233;51.982;4.594;2023-05-07T07:06:46;9.73;;;8.75;;
64799;SDS011;51233;51.982;4.594;2023-05-07T07:09:47;10.17;;;8.23;;
64799;SDS011;51233;51.982;4.594;2023-05-07T07:12:47;12.67;;;9.13;;
64799;SDS011;51233;51.982;4.594;2023-05-07T07:15:47;9.97;;;9.07;;
64799;SDS011;51233;51.982;4.594;2023-05-07T07:18:47;7.97;;;7.18;;
64799;SDS011;51233;51.982;4.594;2023-05-07T07:21:59;10.70;;;8.85;;
64799;SDS011;51233;51.982;4.594;2023-05-07T07:25:00;12.05;;;9.63;;
64799;SDS011;51233;51.982;4.594;2023-05-07T07:28:00;6.73;;;5.80;;
64799;SDS011;51233;51.982;4.594;2023-05-07T07:31:00;12.07;;;9.43;;
64799;SDS011;51233;51.982;4.594;2023-05-07T07:34:00;11.57;;;9.57;;
64799;SDS011;51233;51.982;4.594;2023-05-07T07:37:01;10.70;;;9.57;;
64799;SDS011;51233;51.982;4.594;2023-05-07T07:40:05;8.77;;;6.35;;
64799;SDS011;51233;51.982;4.594;2023-05-07T07:43:05;11.27;;;9.87;;
64799;SDS011;51233;51.982;4.594;2023-05-07T07:46:06;10.20;;;9.20;;
64799;SDS011;51233;51.982;4.594;2023-05-07T07:49:06;11.18;;;8.95;;
64799;SDS011;51233;51.982;4.594;2023-05-07T07:52:06;11.73;;;10.20;;
64799;SDS011;51233;51.982;4.594;2023-05-07T07:55:06;10.90;;;9.90;;
64799;SDS011;51233;51.982;4.594;2023-05-07T07:58:07;10.93;;;9.93;;
64799;SDS011;51233;51.982;4.594;2023-05-07T08:01:07;11.40;;;10.20;;
64799;SDS011;51233;51.982;4.594;2023-05-07T08:04:07;11.27;;;10.18;;
64799;SDS011;51233;51.982;4.594;2023-05-07T08:07:07;10.40;;;9.40;;
64799;SDS011;51233;51.982;4.594;2023-05-07T08:10:08;11.23;;;8.57;;
64799;SDS011;51233;51.982;4.594;2023-05-07T08:13:08;10.83;;;9.60;;
64799;SDS011;51233;51.982;4.594;2023-05-07T08:16:08;10.63;;;9.25;;
64799;SDS011;51233;51.982;4.594;2023-05-07T08:19:09;10.97;;;9.20;;
64799;SDS011;51233;51.982;4.594;2023-05-07T08:22:10;8.67;;;7.87;;
64799;SDS011;51233;51.982;4.594;2023-05-07T08:25:13;10.73;;;9.73;;
64799;SDS011;51233;51.982;4.594;2023-05-07T08:28:13;12.23;;;10.32;;
64799;SDS011;51233;51.982;4.594;2023-05-07T08:31:13;13.07;;;9.90;;
64799;SDS011;51233;51.982;4.594;2023-05-07T08:34:13;12.43;;;11.13;;
64799;SDS011;51233;51.982;4.594;2023-05-07T08:37:13;12.88;;;10.82;;
64799;SDS011;51233;51.982;4.594;2023-05-07T08:40:14;13.77;;;10.97;;
64799;SDS011;51233;51.982;4.594;2023-05-07T08:43:14;12.70;;;11.37;;
64799;SDS011;51233;51.982;4.594;2023-05-07T08:46:18;12.07;;;11.00;;
64799;SDS011;51233;51.982;4.594;2023-05-07T08:49:19;13.85;;;12.32;;
64799;SDS011;51233;51.982;4.594;2023-05-07T08:52:20;12.43;;;11.03;;
64799;SDS011;51233;51.982;4.594;2023-05-07T08:55:20;13.70;;;12.23;;
64799;SDS011;51233;51.982;4.594;2023-05-07T08:58:21;13.47;;;11.87;;
64799;SDS011;51233;51.982;4.594;2023-05-07T09:01:21;16.13;;;11.47;;
64799;SDS011;51233;51.982;4.594;2023-05-07T09:04:21;11.57;;;10.37;;
64799;SDS011;51233;51.982;4.594;2023-05-07T09:07:21;13.10;;;8.00;;
64799;SDS011;51233;51.982;4.594;2023-05-07T09:10:22;9.63;;;8.73;;
64799;SDS011;51233;51.982;4.594;2023-05-07T09:13:22;10.63;;;9.52;;
64799;SDS011;51233;51.982;4.594;2023-05-07T09:16:23;11.50;;;9.60;;
64799;SDS011;51233;51.982;4.594;2023-05-07T09:19:24;11.25;;;9.38;;
64799;SDS011;51233;51.982;4.594;2023-05-07T09:22:24;13.93;;;10.57;;
64799;SDS011;51233;51.982;4.594;2023-05-07T09:25:31;11.23;;;10.23;;
64799;SDS011;51233;51.982;4.594;2023-05-07T09:28:31;12.48;;;10.88;;
64799;SDS011;51233;51.982;4.594;2023-05-07T09:31:37;11.15;;;9.88;;
64799;SDS011;51233;51.982;4.594;2023-05-07T09:34:38;13.65;;;10.57;;
64799;SDS011;51233;51.982;4.594;2023-05-07T09:37:38;13.73;;;10.83;;
64799;SDS011;51233;51.982;4.594;2023-05-07T09:40:38;11.00;;;9.57;;
64799;SDS011;51233;51.982;4.594;2023-05-07T09:43:39;10.25;;;9.30;;
64799;SDS011;51233;51.982;4.594;2023-05-07T09:46:39;9.80;;;7.35;;
64799;SDS011;51233;51.982;4.594;2023-05-07T09:49:46;9.95;;;8.95;;
64799;SDS011;51233;51.982;4.594;2023-05-07T09:52:47;9.27;;;8.38;;
64799;SDS011;51233;51.982;4.594;2023-05-07T09:55:48;9.10;;;8.20;;
64799;SDS011;51233;51.982;4.594;2023-05-07T09:58:48;9.10;;;8.13;;
64799;SDS011;51233;51.982;4.594;2023-05-07T10:01:49;9.97;;;7.90;;
64799;SDS011;51233;51.982;4.594;2023-05-07T10:07:51;6.20;;;5.00;;
64799;SDS011;51233;51.982;4.594;2023-05-07T10:10:52;9.10;;;7.45;;
64799;SDS011;51233;51.982;4.594;2023-05-07T10:13:52;6.90;;;5.47;;
64799;SDS011;51233;51.982;4.594;2023-05-07T10:16:53;11.63;;;8.60;;
64799;SDS011;51233;51.982;4.594;2023-05-07T10:19:53;3.35;;;3.05;;
64799;SDS011;51233;51.982;4.594;2023-05-07T10:22:53;3.47;;;3.10;;
64799;SDS011;51233;51.982;4.594;2023-05-07T10:25:55;10.07;;;8.32;;
64799;SDS011;51233;51.982;4.594;2023-05-07T10:29:01;12.33;;;8.87;;
64799;SDS011;51233;51.982;4.594;2023-05-07T10:32:08;9.35;;;7.30;;
64799;SDS011;51233;51.982;4.594;2023-05-07T10:35:17;8.63;;;5.63;;
64799;SDS011;51233;51.982;4.594;2023-05-07T10:38:19;6.10;;;5.47;;
64799;SDS011;51233;51.982;4.594;2023-05-07T10:41:19;9.00;;;7.97;;
64799;SDS011;51233;51.982;4.594;2023-05-07T10:47:21;9.00;;;5.93;;
64799;SDS011;51233;51.982;4.594;2023-05-07T10:50:21;9.07;;;7.40;;
64799;SDS011;51233;51.982;4.594;2023-05-07T10:53:24;6.83;;;6.10;;
64799;SDS011;51233;51.982;4.594;2023-05-07T10:56:27;6.72;;;5.95;;
64799;SDS011;51233;51.982;4.594;2023-05-07T10:59:30;9.07;;;7.17;;
64799;SDS011;51233;51.982;4.594;2023-05-07T11:09:08;7.20;;;5.40;;
64799;SDS011;51233;51.982;4.594;2023-05-07T11:12:08;7.72;;;4.63;;
64799;SDS011;51233;51.982;4.594;2023-05-07T11:15:14;5.93;;;4.57;;
64799;SDS011;51233;51.982;4.594;2023-05-07T11:18:16;9.02;;;6.22;;
64799;SDS011;51233;51.982;4.594;2023-05-07T11:21:35;6.43;;;4.93;;
64799;SDS011;51233;51.982;4.594;2023-05-07T11:24:39;9.73;;;5.35;;
64799;SDS011;51233;51.982;4.594;2023-05-07T11:27:40;8.18;;;5.45;;
64799;SDS011;51233;51.982;4.594;2023-05-07T11:30:42;9.80;;;5.37;;
64799;SDS011;51233;51.982;4.594;2023-05-07T11:33:43;7.65;;;6.07;;
64799;SDS011;51233;51.982;4.594;2023-05-07T11:36:43;6.93;;;6.05;;
64799;SDS011;51233;51.982;4.594;2023-05-07T11:39:46;5.28;;;4.35;;
64799;SDS011;51233;51.982;4.594;2023-05-07T11:42:46;8.10;;;5.73;;
64799;SDS011;51233;51.982;4.594;2023-05-07T11:45:47;6.70;;;5.13;;
64799;SDS011;51233;51.982;4.594;2023-05-07T11:48:47;7.97;;;6.13;;
64799;SDS011;51233;51.982;4.594;2023-05-07T11:51:47;6.40;;;5.37;;
64799;SDS011;51233;51.982;4.594;2023-05-07T11:54:51;8.43;;;6.33;;
64799;SDS011;51233;51.982;4.594;2023-05-07T11:57:52;9.40;;;6.22;;
64799;SDS011;51233;51.982;4.594;2023-05-07T12:00:53;5.25;;;4.80;;
64799;SDS011;51233;51.982;4.594;2023-05-07T12:03:53;8.97;;;6.10;;
64799;SDS011;51233;51.982;4.594;2023-05-07T12:06:53;14.43;;;7.25;;
64799;SDS011;51233;51.982;4.594;2023-05-07T12:09:56;6.83;;;5.53;;
64799;SDS011;51233;51.982;4.594;2023-05-07T12:12:56;7.15;;;6.10;;
64799;SDS011;51233;51.982;4.594;2023-05-07T12:15:57;7.07;;;6.05;;
64799;SDS011;51233;51.982;4.594;2023-05-07T12:18:58;9.53;;;7.40;;
64799;SDS011;51233;51.982;4.594;2023-05-07T12:21:59;10.05;;;7.55;;
64799;SDS011;51233;51.982;4.594;2023-05-07T12:24:59;10.47;;;7.60;;
64799;SDS011;51233;51.982;4.594;2023-05-07T12:28:00;6.33;;;4.13;;
64799;SDS011;51233;51.982;4.594;2023-05-07T12:31:00;7.57;;;5.45;;
64799;SDS011;51233;51.982;4.594;2023-05-07T12:34:02;1.43;;;1.33;;
64799;SDS011;51233;51.982;4.594;2023-05-07T12:37:02;2.35;;;1.00;;
64799;SDS011;51233;51.982;4.594;2023-05-07T12:40:07;1.00;;;1.00;;
64799;SDS011;51233;51.982;4.594;2023-05-07T12:43:08;1.50;;;1.40;;
64799;SDS011;51233;51.982;4.594;2023-05-07T12:46:08;4.40;;;3.97;;
64799;SDS011;51233;51.982;4.594;2023-05-07T12:49:08;3.03;;;1.73;;
64799;SDS011;51233;51.982;4.594;2023-05-07T12:52:09;1.60;;;1.50;;
64799;SDS011;51233;51.982;4.594;2023-05-07T12:58:14;7.97;;;6.80;;
64799;SDS011;51233;51.982;4.594;2023-05-07T13:01:15;5.22;;;4.72;;
64799;SDS011;51233;51.982;4.594;2023-05-07T13:04:23;7.90;;;7.03;;
64799;SDS011;51233;51.982;4.594;2023-05-07T13:07:26;10.15;;;7.03;;
64799;SDS011;51233;51.982;4.594;2023-05-07T13:10:27;10.05;;;6.82;;
64799;SDS011;51233;51.982;4.594;2023-05-07T13:13:27;14.03;;;9.00;;
64799;SDS011;51233;51.982;4.594;2023-05-07T13:16:27;8.23;;;5.77;;
64799;SDS011;51233;51.982;4.594;2023-05-07T13:19:27;9.07;;;5.63;;
64799;SDS011;51233;51.982;4.594;2023-05-07T13:22:28;12.27;;;6.97;;
64799;SDS011;51233;51.982;4.594;2023-05-07T13:25:28;7.35;;;5.65;;
64799;SDS011;51233;51.982;4.594;2023-05-07T13:28:28;13.38;;;9.00;;
64799;SDS011;51233;51.982;4.594;2023-05-07T13:31:28;16.90;;;10.40;;
64799;SDS011;51233;51.982;4.594;2023-05-07T13:34:28;14.68;;;9.52;;
64799;SDS011;51233;51.982;4.594;2023-05-07T13:37:28;16.10;;;10.93;;
64799;SDS011;51233;51.982;4.594;2023-05-07T13:40:29;21.70;;;12.40;;
64799;SDS011;51233;51.982;4.594;2023-05-07T13:43:29;16.50;;;10.67;;
64799;SDS011;51233;51.982;4.594;2023-05-07T13:46:29;15.33;;;9.60;;
64799;SDS011;51233;51.982;4.594;2023-05-07T13:49:30;1.70;;;1.60;;
64799;SDS011;51233;51.982;4.594;2023-05-07T13:52:30;2.13;;;1.83;;
64799;SDS011;51233;51.982;4.594;2023-05-07T13:55:30;10.47;;;7.73;;
64799;SDS011;51233;51.982;4.594;2023-05-07T13:58:30;10.27;;;8.17;;
64799;SDS011;51233;51.982;4.594;2023-05-07T14:01:31;4.13;;;3.60;;
64799;SDS011;51233;51.982;4.594;2023-05-07T14:04:31;14.80;;;10.70;;
64799;SDS011;51233;51.982;4.594;2023-05-07T14:07:31;2.53;;;2.33;;
64799;SDS011;51233;51.982;4.594;2023-05-07T14:10:31;13.10;;;8.67;;
64799;SDS011;51233;51.982;4.594;2023-05-07T14:13:34;15.30;;;8.88;;
64799;SDS011;51233;51.982;4.594;2023-05-07T14:16:34;7.27;;;4.87;;
64799;SDS011;51233;51.982;4.594;2023-05-07T14:19:35;4.03;;;3.40;;
64799;SDS011;51233;51.982;4.594;2023-05-07T14:22:35;17.38;;;9.68;;
64799;SDS011;51233;51.982;4.594;2023-05-07T14:25:35;14.23;;;10.07;;
64799;SDS011;51233;51.982;4.594;2023-05-07T14:28:35;13.38;;;8.57;;
64799;SDS011;51233;51.982;4.594;2023-05-07T14:31:35;3.22;;;2.92;;
64799;SDS011;51233;51.982;4.594;2023-05-07T14:34:38;3.38;;;3.00;;
64799;SDS011;51233;51.982;4.594;2023-05-07T14:37:38;1.60;;;1.50;;
64799;SDS011;51233;51.982;4.594;2023-05-07T14:40:41;1.97;;;1.87;;
64799;SDS011;51233;51.982;4.594;2023-05-07T14:43:42;2.17;;;1.98;;
64799;SDS011;51233;51.982;4.594;2023-05-07T14:46:42;1.85;;;1.70;;
64799;SDS011;51233;51.982;4.594;2023-05-07T14:49:45;5.05;;;3.53;;
64799;SDS011;51233;51.982;4.594;2023-05-07T14:52:45;9.90;;;6.57;;
64799;SDS011;51233;51.982;4.594;2023-05-07T14:55:45;2.30;;;1.98;;
64799;SDS011;51233;51.982;4.594;2023-05-07T14:58:46;3.75;;;2.42;;
64799;SDS011;51233;51.982;4.594;2023-05-07T15:01:47;2.55;;;1.95;;
64799;SDS011;51233;51.982;4.594;2023-05-07T15:04:47;3.70;;;2.37;;
64799;SDS011;51233;51.982;4.594;2023-05-07T15:07:48;4.47;;;2.43;;
64799;SDS011;51233;51.982;4.594;2023-05-07T15:10:48;1.50;;;1.40;;
64799;SDS011;51233;51.982;4.594;2023-05-07T15:13:49;1.40;;;1.13;;
64799;SDS011;51233;51.982;4.594;2023-05-07T15:16:49;1.63;;;1.40;;
64799;SDS011;51233;51.982;4.594;2023-05-07T15:19:49;3.07;;;2.87;;
64799;SDS011;51233;51.982;4.594;2023-05-07T15:22:51;2.38;;;2.20;;
64799;SDS011;51233;51.982;4.594;2023-05-07T15:25:51;1.83;;;1.73;;
64799;SDS011;51233;51.982;4.594;2023-05-07T15:28:51;2.00;;;1.60;;
64799;SDS011;51233;51.982;4.594;2023-05-07T15:31:52;1.65;;;1.55;;
64799;SDS011;51233;51.982;4.594;2023-05-07T15:34:52;2.60;;;2.40;;
64799;SDS011;51233;51.982;4.594;2023-05-07T15:37:52;2.97;;;1.20;;
64799;SDS011;51233;51.982;4.594;2023-05-07T15:40:53;1.40;;;1.20;;
64799;SDS011;51233;51.982;4.594;2023-05-07T15:43:54;3.05;;;2.75;;
64799;SDS011;51233;51.982;4.594;2023-05-07T15:46:54;1.67;;;1.57;;
64799;SDS011;51233;51.982;4.594;2023-05-07T15:49:54;2.10;;;1.60;;
64799;SDS011;51233;51.982;4.594;2023-05-07T15:52:55;5.00;;;3.97;;
64799;SDS011;51233;51.982;4.594;2023-05-07T15:55:55;1.75;;;1.30;;
64799;SDS011;51233;51.982;4.594;2023-05-07T15:58:55;14.43;;;9.63;;
64799;SDS011;51233;51.982;4.594;2023-05-07T16:01:56;4.03;;;3.20;;
64799;SDS011;51233;51.982;4.594;2023-05-07T16:04:57;7.30;;;6.43;;
64799;SDS011;51233;51.982;4.594;2023-05-07T16:07:57;5.07;;;4.55;;
64799;SDS011;51233;51.982;4.594;2023-05-07T16:10:59;1.55;;;1.23;;
64799;SDS011;51233;51.982;4.594;2023-05-07T16:13:59;7.85;;;6.30;;
64799;SDS011;51233;51.982;4.594;2023-05-07T16:17:05;3.38;;;1.60;;
64799;SDS011;51233;51.982;4.594;2023-05-07T16:20:05;1.10;;;1.00;;
64799;SDS011;51233;51.982;4.594;2023-05-07T16:23:07;13.95;;;10.23;;
64799;SDS011;51233;51.982;4.594;2023-05-07T16:26:08;2.60;;;2.40;;
64799;SDS011;51233;51.982;4.594;2023-05-07T16:29:10;3.83;;;1.60;;
64799;SDS011;51233;51.982;4.594;2023-05-07T16:32:11;11.65;;;8.70;;
64799;SDS011;51233;51.982;4.594;2023-05-07T16:35:11;4.10;;;3.80;;
64799;SDS011;51233;51.982;4.594;2023-05-07T16:38:11;1.20;;;1.17;;
64799;SDS011;51233;51.982;4.594;2023-05-07T16:41:11;1.93;;;1.73;;
64799;SDS011;51233;51.982;4.594;2023-05-07T16:44:12;3.73;;;3.30;;
64799;SDS011;51233;51.982;4.594;2023-05-07T16:47:12;9.30;;;8.35;;
64799;SDS011;51233;51.982;4.594;2023-05-07T16:50:12;6.63;;;5.53;;
64799;SDS011;51233;51.982;4.594;2023-05-07T16:53:15;10.32;;;8.75;;
64799;SDS011;51233;51.982;4.594;2023-05-07T16:56:16;9.73;;;8.45;;
64799;SDS011;51233;51.982;4.594;2023-05-07T16:59:16;5.20;;;4.70;;
64799;SDS011;51233;51.982;4.594;2023-05-07T17:02:17;7.20;;;5.60;;
64799;SDS011;51233;51.982;4.594;2023-05-07T17:05:17;5.43;;;4.47;;
64799;SDS011;51233;51.982;4.594;2023-05-07T17:08:24;6.18;;;5.43;;
64799;SDS011;51233;51.982;4.594;2023-05-07T17:11:25;1.48;;;1.38;;
64799;SDS011;51233;51.982;4.594;2023-05-07T17:14:29;5.57;;;5.03;;
64799;SDS011;51233;51.982;4.594;2023-05-07T17:17:30;1.10;;;1.10;;
64799;SDS011;51233;51.982;4.594;2023-05-07T17:20:30;1.53;;;1.47;;
64799;SDS011;51233;51.982;4.594;2023-05-07T17:23:30;5.28;;;2.13;;
64799;SDS011;51233;51.982;4.594;2023-05-07T17:26:30;1.40;;;1.30;;
64799;SDS011;51233;51.982;4.594;2023-05-07T17:29:33;4.38;;;4.07;;
64799;SDS011;51233;51.982;4.594;2023-05-07T17:32:33;2.80;;;2.60;;
64799;SDS011;51233;51.982;4.594;2023-05-07T17:35:34;2.00;;;1.23;;
64799;SDS011;51233;51.982;4.594;2023-05-07T17:38:34;3.40;;;2.97;;
64799;SDS011;51233;51.982;4.594;2023-05-07T17:41:35;3.10;;;2.23;;
64799;SDS011;51233;51.982;4.594;2023-05-07T17:44:35;3.92;;;2.47;;
64799;SDS011;51233;51.982;4.594;2023-05-07T17:47:35;4.40;;;4.00;;
64799;SDS011;51233;51.982;4.594;2023-05-07T17:50:38;3.70;;;3.33;;
64799;SDS011;51233;51.982;4.594;2023-05-07T17:53:38;1.48;;;1.38;;
64799;SDS011;51233;51.982;4.594;2023-05-07T17:56:38;1.93;;;1.83;;
64799;SDS011;51233;51.982;4.594;2023-05-07T17:59:39;1.50;;;1.40;;
64799;SDS011;51233;51.982;4.594;2023-05-07T18:02:39;2.57;;;2.37;;
64799;SDS011;51233;51.982;4.594;2023-05-07T18:05:40;8.25;;;6.90;;
64799;SDS011;51233;51.982;4.594;2023-05-07T18:08:40;13.40;;;9.30;;
64799;SDS011;51233;51.982;4.594;2023-05-07T18:11:41;3.30;;;3.00;;
64799;SDS011;51233;51.982;4.594;2023-05-07T18:14:41;7.35;;;5.72;;
64799;SDS011;51233;51.982;4.594;2023-05-07T18:17:41;4.00;;;3.60;;